createdAt,value
2024-01-24T00:00:06.329Z,0.10
2024-01-24T00:01:06.337Z,0.10
2024-01-24T00:02:06.262Z,0.10
2024-01-24T00:03:06.335Z,0.80
2024-01-24T00:04:06.290Z,0.50
2024-01-24T00:05:06.250Z,0.70
2024-01-24T00:06:06.204Z,0.30
2024-01-24T00:07:06.193Z,0.60
2024-01-24T00:08:06.265Z,0.80
2024-01-24T00:09:06.155Z,0.50
2024-01-24T00:10:06.164Z,0.10
2024-01-24T00:11:06.135Z,0.20
2024-01-24T00:12:06.195Z,0.30
2024-01-24T00:13:06.176Z,0.30
2024-01-24T00:14:06.120Z,0.30
2024-01-24T00:15:06.109Z,0.50
2024-01-24T00:16:06.087Z,0.30
2024-01-24T00:17:06.088Z,0.30
2024-01-24T00:18:06.120Z,1.10
2024-01-24T00:19:06.174Z,0.10
2024-01-24T00:20:06.027Z,0.40
2024-01-24T00:21:06.024Z,0.10
2024-01-24T00:22:06.013Z,0.40
2024-01-24T00:23:06.064Z,0.30
2024-01-24T00:24:05.991Z,0.20
2024-01-24T00:25:06.006Z,0.00
2024-01-24T00:26:06.000Z,0.20
2024-01-24T00:27:05.967Z,0.10
2024-01-24T00:28:05.968Z,0.10
2024-01-24T00:29:05.992Z,1.10
2024-01-24T00:30:05.962Z,0.30
2024-01-24T00:31:05.927Z,0.20
2024-01-24T00:32:05.928Z,0.30
2024-01-24T00:33:05.923Z,0.90
2024-01-24T00:34:06.223Z,0.30
2024-01-24T00:35:05.917Z,0.80
2024-01-24T00:36:05.930Z,0.80
2024-01-24T00:37:05.863Z,0.30
2024-01-24T00:38:05.873Z,1.10
2024-01-24T00:39:05.855Z,0.50
2024-01-24T00:40:05.836Z,0.30
2024-01-24T00:41:05.814Z,0.10
2024-01-24T00:42:05.810Z,0.20
2024-01-24T00:43:05.781Z,0.10
2024-01-24T00:44:05.793Z,0.10
2024-01-24T00:45:05.780Z,0.20
2024-01-24T00:46:05.768Z,0.10
2024-01-24T00:47:05.751Z,0.30
2024-01-24T00:48:05.800Z,0.20
2024-01-24T00:49:05.808Z,0.10
2024-01-24T00:50:05.739Z,0.30
2024-01-24T00:51:05.710Z,0.10
2024-01-24T00:52:05.717Z,0.40
2024-01-24T00:53:05.687Z,0.90
2024-01-24T00:54:05.704Z,0.10
2024-01-24T00:55:05.693Z,2.30
2024-01-24T00:56:05.676Z,0.40
2024-01-24T00:57:05.662Z,0.70
2024-01-24T00:58:05.659Z,1.40
2024-01-24T00:59:05.622Z,1.20
2024-01-24T01:00:05.611Z,0.70
2024-01-24T01:01:05.666Z,0.70
2024-01-24T01:02:05.590Z,0.30
2024-01-24T01:03:05.613Z,0.50
2024-01-24T01:04:05.925Z,0.10
2024-01-24T01:05:05.649Z,0.50
2024-01-24T01:06:05.541Z,1.00
2024-01-24T01:07:05.550Z,0.90
2024-01-24T01:08:05.533Z,0.30
2024-01-24T01:09:05.505Z,1.60
2024-01-24T01:10:05.516Z,1.40
2024-01-24T01:11:05.492Z,0.60
2024-01-24T01:12:05.472Z,1.10
2024-01-24T01:13:05.489Z,0.30
2024-01-24T01:14:05.449Z,1.80
2024-01-24T01:15:05.490Z,0.30
2024-01-24T01:16:05.460Z,0.40
2024-01-24T01:17:05.426Z,0.90
2024-01-24T01:18:05.465Z,0.60
2024-01-24T01:19:05.526Z,0.70
2024-01-24T01:20:05.403Z,0.80
2024-01-24T01:21:05.379Z,0.20
2024-01-24T01:22:05.485Z,1.20
2024-01-24T01:23:05.368Z,1.20
2024-01-24T01:24:05.361Z,0.90
2024-01-24T01:25:05.342Z,0.60
2024-01-24T01:26:05.316Z,0.10
2024-01-24T01:27:05.336Z,0.90
2024-01-24T01:28:05.331Z,1.60
2024-01-24T01:29:05.305Z,1.00
2024-01-24T01:30:05.296Z,0.80
2024-01-24T01:31:05.365Z,2.00
2024-01-24T01:32:05.365Z,0.70
2024-01-24T01:33:05.323Z,0.50
2024-01-24T01:34:05.348Z,0.60
2024-01-24T01:35:05.227Z,0.40
2024-01-24T01:36:13.873Z,0.90
2024-01-24T01:37:06.274Z,0.50
2024-01-24T01:38:05.200Z,0.60
2024-01-24T01:39:05.199Z,0.60
2024-01-24T01:40:05.260Z,0.80
2024-01-24T01:41:05.155Z,1.00
2024-01-24T01:42:05.155Z,0.90
2024-01-24T01:43:05.183Z,1.50
2024-01-24T01:44:05.137Z,0.40
2024-01-24T01:45:05.112Z,0.90
2024-01-24T01:46:05.121Z,2.50
2024-01-24T01:47:05.111Z,0.70
2024-01-24T01:48:05.114Z,1.90
2024-01-24T01:49:05.157Z,0.90
2024-01-24T01:50:05.083Z,0.20
2024-01-24T01:51:05.094Z,1.90
2024-01-24T01:52:05.128Z,2.40
2024-01-24T01:53:05.063Z,0.20
2024-01-24T01:54:05.023Z,1.20
2024-01-24T01:55:05.044Z,0.70
2024-01-24T01:56:05.027Z,1.00
2024-01-24T01:57:05.012Z,1.40
2024-01-24T01:58:05.004Z,1.00
2024-01-24T01:59:04.975Z,1.30
2024-01-24T02:00:04.961Z,0.50
2024-01-24T02:01:05.109Z,1.10
2024-01-24T02:02:04.984Z,1.30
2024-01-24T02:03:04.963Z,3.30
2024-01-24T02:04:04.976Z,1.70
2024-01-24T02:05:04.922Z,1.90
2024-01-24T02:06:04.918Z,1.40
2024-01-24T02:07:04.960Z,0.80
2024-01-24T02:08:04.874Z,1.20
2024-01-24T02:09:04.862Z,2.00
2024-01-24T02:10:04.885Z,2.00
2024-01-24T02:11:04.844Z,1.30
2024-01-24T02:12:04.854Z,0.90
2024-01-24T02:13:04.834Z,1.10
2024-01-24T02:14:04.797Z,1.40
2024-01-24T02:15:04.804Z,2.00
2024-01-24T02:16:04.830Z,2.40
2024-01-24T02:17:04.849Z,2.20
2024-01-24T02:18:04.811Z,3.50
2024-01-24T02:19:04.804Z,3.00
2024-01-24T02:20:04.824Z,2.00
2024-01-24T02:21:04.736Z,2.50
2024-01-24T02:22:04.746Z,1.10
2024-01-24T02:23:04.728Z,1.30
2024-01-24T02:24:04.709Z,3.90
2024-01-24T02:25:04.699Z,2.70
2024-01-24T02:26:04.689Z,1.20
2024-01-24T02:27:04.693Z,2.50
2024-01-24T02:28:04.679Z,1.70
2024-01-24T02:29:04.637Z,2.30
2024-01-24T02:30:04.649Z,1.50
2024-01-24T02:31:04.634Z,2.80
2024-01-24T02:32:04.619Z,1.90
2024-01-24T02:33:04.672Z,1.50
2024-01-24T02:34:05.327Z,3.30
2024-01-24T02:35:04.587Z,1.60
2024-01-24T02:36:04.606Z,2.00
2024-01-24T02:37:04.573Z,2.40
2024-01-24T02:38:04.551Z,2.00
2024-01-24T02:39:04.606Z,1.50
2024-01-24T02:40:04.530Z,2.10
2024-01-24T02:41:04.529Z,1.20
2024-01-24T02:42:13.231Z,1.80
2024-01-24T02:43:04.485Z,1.60
2024-01-24T02:44:04.496Z,1.60
2024-01-24T02:45:04.500Z,1.20
2024-01-24T02:46:04.477Z,1.10
2024-01-24T02:47:04.464Z,1.30
2024-01-24T02:48:04.558Z,1.70
2024-01-24T02:49:04.526Z,2.60
2024-01-24T02:50:04.450Z,2.10
2024-01-24T02:51:04.492Z,0.70
2024-01-24T02:52:04.437Z,1.10
2024-01-24T02:53:04.391Z,1.70
2024-01-24T02:54:04.428Z,2.90
2024-01-24T02:55:04.411Z,1.40
2024-01-24T02:56:04.414Z,1.40
2024-01-24T02:57:04.346Z,1.30
2024-01-24T02:58:04.352Z,0.70
2024-01-24T02:59:04.341Z,0.70
2024-01-24T03:00:04.306Z,1.70
2024-01-24T03:01:04.365Z,0.70
2024-01-24T03:02:04.320Z,1.00
2024-01-24T03:03:04.318Z,1.80
2024-01-24T03:04:04.432Z,1.00
2024-01-24T03:05:04.270Z,1.60
2024-01-24T03:06:04.283Z,0.70
2024-01-24T03:07:04.349Z,1.00
2024-01-24T03:08:04.226Z,2.30
2024-01-24T03:09:04.238Z,0.90
2024-01-24T03:10:04.252Z,0.90
2024-01-24T03:11:04.197Z,1.60
2024-01-24T03:12:04.192Z,2.00
2024-01-24T03:13:04.262Z,1.40
2024-01-24T03:14:04.151Z,2.70
2024-01-24T03:15:04.154Z,0.90
2024-01-24T03:16:04.182Z,1.80
2024-01-24T03:17:04.144Z,0.30
2024-01-24T03:18:04.276Z,0.30
2024-01-24T03:19:04.175Z,1.10
2024-01-24T03:20:04.118Z,1.10
2024-01-24T03:21:04.091Z,1.00
2024-01-24T03:22:04.186Z,0.40
2024-01-24T03:23:05.705Z,0.40
2024-01-24T03:24:04.080Z,0.50
2024-01-24T03:25:04.160Z,1.10
2024-01-24T03:26:04.071Z,1.50
2024-01-24T03:27:04.044Z,1.50
2024-01-24T03:28:04.049Z,0.50
2024-01-24T03:29:04.013Z,1.30
2024-01-24T03:30:03.987Z,0.70
2024-01-24T03:31:04.651Z,1.80
2024-01-24T03:32:03.970Z,1.10
2024-01-24T03:33:04.013Z,0.80
2024-01-24T03:34:04.096Z,1.40
2024-01-24T03:35:04.082Z,0.60
2024-01-24T03:36:03.981Z,1.10
2024-01-24T03:37:03.981Z,1.80
2024-01-24T03:38:03.938Z,0.30
2024-01-24T03:39:03.898Z,1.10
2024-01-24T03:40:03.973Z,1.70
2024-01-24T03:41:03.915Z,1.10
2024-01-24T03:42:03.880Z,1.30
2024-01-24T03:43:03.902Z,1.20
2024-01-24T03:44:03.918Z,0.50
2024-01-24T03:45:03.843Z,1.30
2024-01-24T03:46:03.848Z,1.40
2024-01-24T03:47:03.816Z,1.90
2024-01-24T03:48:03.847Z,0.40
2024-01-24T03:49:03.945Z,1.20
2024-01-24T03:50:03.782Z,0.40
2024-01-24T03:51:04.058Z,0.90
2024-01-24T03:52:04.072Z,0.90
2024-01-24T03:53:03.753Z,0.70
2024-01-24T03:54:03.752Z,0.70
2024-01-24T03:55:03.822Z,0.90
2024-01-24T03:56:03.708Z,0.20
2024-01-24T03:57:03.723Z,0.50
2024-01-24T03:58:03.719Z,0.70
2024-01-24T03:59:03.675Z,1.30
2024-01-24T04:00:03.662Z,0.30
2024-01-24T04:01:03.752Z,0.40
2024-01-24T04:02:03.652Z,1.30
2024-01-24T04:03:03.689Z,0.70
2024-01-24T04:04:04.091Z,1.10
2024-01-24T04:05:03.668Z,1.10
2024-01-24T04:06:03.938Z,0.30
2024-01-24T04:07:03.951Z,0.80
2024-01-24T04:08:03.573Z,8.40
2024-01-24T04:09:03.592Z,0.60
2024-01-24T04:10:03.563Z,1.00
2024-01-24T04:11:03.791Z,1.00
2024-01-24T04:12:03.579Z,0.50
2024-01-24T04:13:03.519Z,0.90
2024-01-24T04:14:03.514Z,0.70
2024-01-24T04:15:03.530Z,0.80
2024-01-24T04:16:03.888Z,0.50
2024-01-24T04:17:03.480Z,0.50
2024-01-24T04:18:03.535Z,0.50
2024-01-24T04:19:03.583Z,2.10
2024-01-24T04:20:03.463Z,1.00
2024-01-24T04:21:03.449Z,0.50
2024-01-24T04:22:03.551Z,0.60
2024-01-24T04:23:03.413Z,0.50
2024-01-24T04:24:03.399Z,0.80
2024-01-24T04:25:03.727Z,0.20
2024-01-24T04:26:03.409Z,0.50
2024-01-24T04:27:03.369Z,0.60
2024-01-24T04:28:03.431Z,1.40
2024-01-24T04:29:03.367Z,0.60
2024-01-24T04:30:03.358Z,0.90
2024-01-24T04:31:03.434Z,1.20
2024-01-24T04:32:03.333Z,0.30
2024-01-24T04:33:03.442Z,0.40
2024-01-24T04:34:03.419Z,0.30
2024-01-24T04:35:03.342Z,0.30
2024-01-24T04:36:03.286Z,0.90
2024-01-24T04:37:03.288Z,0.60
2024-01-24T04:38:03.250Z,1.40
2024-01-24T04:39:03.264Z,0.40
2024-01-24T04:40:03.299Z,1.90
2024-01-24T04:41:03.234Z,1.20
2024-01-24T04:42:11.665Z,0.50
2024-01-24T04:43:04.342Z,0.20
2024-01-24T04:44:03.190Z,0.50
2024-01-24T04:45:03.228Z,0.60
2024-01-24T04:46:03.206Z,0.70
2024-01-24T04:47:03.177Z,1.00
2024-01-24T04:48:03.216Z,0.80
2024-01-24T04:49:03.295Z,0.50
2024-01-24T04:50:03.347Z,0.80
2024-01-24T04:51:03.114Z,1.00
2024-01-24T04:52:03.170Z,0.40
2024-01-24T04:53:03.097Z,1.30
2024-01-24T04:54:03.095Z,0.40
2024-01-24T04:55:03.214Z,0.90
2024-01-24T04:56:03.167Z,0.50
2024-01-24T04:57:03.070Z,0.70
2024-01-24T04:58:03.132Z,0.90
2024-01-24T04:59:03.064Z,0.20
2024-01-24T05:00:03.366Z,0.80
2024-01-24T05:01:03.183Z,0.30
2024-01-24T05:02:03.065Z,0.70
2024-01-24T05:03:03.007Z,0.50
2024-01-24T05:04:03.043Z,0.50
2024-01-24T05:05:03.011Z,0.80
2024-01-24T05:06:07.709Z,0.40
2024-01-24T05:07:04.027Z,1.10
2024-01-24T05:08:02.976Z,1.20
2024-01-24T05:09:02.947Z,0.50
2024-01-24T05:10:03.022Z,0.70
2024-01-24T05:11:02.950Z,0.70
2024-01-24T05:12:02.903Z,0.80
2024-01-24T05:13:03.005Z,0.30
2024-01-24T05:14:03.141Z,1.00
2024-01-24T05:15:02.882Z,1.50
2024-01-24T05:16:02.877Z,0.30
2024-01-24T05:17:02.864Z,0.90
2024-01-24T05:18:02.932Z,0.60
2024-01-24T05:19:02.967Z,0.20
2024-01-24T05:20:02.841Z,0.70
2024-01-24T05:21:02.783Z,1.10
2024-01-24T05:22:02.828Z,0.10
2024-01-24T05:23:02.812Z,0.20
2024-01-24T05:24:02.801Z,0.50
2024-01-24T05:25:02.805Z,0.30
2024-01-24T05:26:02.758Z,1.20
2024-01-24T05:27:02.798Z,0.40
2024-01-24T05:28:02.747Z,0.20
2024-01-24T05:29:02.750Z,0.60
2024-01-24T05:30:12.122Z,0.60
2024-01-24T05:31:03.747Z,0.60
2024-01-24T05:32:02.703Z,0.10
2024-01-24T05:33:02.752Z,0.30
2024-01-24T05:34:02.768Z,0.40
2024-01-24T05:35:02.727Z,0.30
2024-01-24T05:36:02.655Z,0.50
2024-01-24T05:37:02.738Z,0.20
2024-01-24T05:38:02.639Z,0.30
2024-01-24T05:39:02.629Z,0.60
2024-01-24T05:40:02.652Z,0.10
2024-01-24T05:41:02.590Z,0.20
2024-01-24T05:42:02.582Z,0.50
2024-01-24T05:43:02.655Z,1.20
2024-01-24T05:44:02.580Z,0.50
2024-01-24T05:45:02.542Z,0.20
2024-01-24T05:46:02.599Z,0.10
2024-01-24T05:47:02.597Z,0.30
2024-01-24T05:48:02.757Z,0.10
2024-01-24T05:49:02.958Z,0.10
2024-01-24T05:50:02.522Z,0.50
2024-01-24T05:51:02.494Z,0.50
2024-01-24T05:52:02.651Z,0.40
2024-01-24T05:53:02.478Z,0.20
2024-01-24T05:54:02.469Z,0.10
2024-01-24T05:55:02.456Z,0.70
2024-01-24T05:56:02.420Z,0.10
2024-01-24T05:57:02.453Z,0.60
2024-01-24T05:58:02.465Z,0.20
2024-01-24T05:59:02.444Z,0.20
2024-01-24T06:00:03.271Z,0.10
2024-01-24T06:01:02.536Z,0.20
2024-01-24T06:02:02.438Z,0.30
2024-01-24T06:03:02.399Z,0.10
2024-01-24T06:04:02.402Z,0.30
2024-01-24T06:05:02.453Z,0.20
2024-01-24T06:06:02.442Z,0.20
2024-01-24T06:07:02.396Z,0.10
2024-01-24T06:08:02.335Z,0.20
2024-01-24T06:09:02.309Z,0.20
2024-01-24T06:10:02.322Z,0.10
2024-01-24T06:11:02.312Z,0.50
2024-01-24T06:12:02.234Z,0.10
2024-01-24T06:13:02.410Z,0.10
2024-01-24T06:14:02.478Z,0.10
2024-01-24T06:15:02.363Z,0.40
2024-01-24T06:16:02.433Z,0.10
2024-01-24T06:17:02.313Z,0.30
2024-01-24T06:18:02.532Z,0.50
2024-01-24T06:19:02.295Z,0.60
2024-01-24T06:20:02.155Z,0.10
2024-01-24T06:21:02.173Z,0.10
2024-01-24T06:22:02.215Z,0.60
2024-01-24T06:23:02.201Z,0.10
2024-01-24T06:24:02.146Z,0.10
2024-01-24T06:25:02.219Z,2.80
2024-01-24T06:26:02.127Z,0.10
2024-01-24T06:27:02.114Z,0.20
2024-01-24T06:28:02.183Z,0.20
2024-01-24T06:29:02.122Z,0.20
2024-01-24T06:30:18.195Z,0.20
2024-01-24T06:31:03.182Z,0.10
2024-01-24T06:32:02.082Z,1.10
2024-01-24T06:33:02.871Z,0.30
2024-01-24T06:34:02.105Z,0.40
2024-01-24T06:35:02.014Z,0.30
2024-01-24T06:36:02.006Z,0.70
2024-01-24T06:37:02.000Z,0.30
2024-01-24T06:38:01.984Z,0.60
2024-01-24T06:39:02.013Z,0.00
2024-01-24T06:40:02.012Z,0.10
2024-01-24T06:41:01.951Z,0.10
2024-01-24T06:42:01.915Z,0.20
2024-01-24T06:43:02.006Z,0.10
2024-01-24T06:44:01.947Z,0.10
2024-01-24T06:45:01.942Z,0.10
2024-01-24T06:46:01.969Z,0.10
2024-01-24T06:47:01.910Z,0.10
2024-01-24T06:48:01.946Z,0.10
2024-01-24T06:49:01.980Z,0.00
2024-01-24T06:50:01.873Z,0.10
2024-01-24T06:51:01.881Z,0.00
2024-01-24T06:52:01.816Z,0.70
2024-01-24T06:53:02.477Z,0.00
2024-01-24T06:54:02.664Z,0.10
2024-01-24T06:55:01.850Z,0.10
2024-01-24T06:56:01.801Z,2.80
2024-01-24T06:57:01.802Z,0.30
2024-01-24T06:58:02.934Z,0.40
2024-01-24T06:59:01.753Z,0.30
2024-01-24T07:00:01.743Z,0.10
2024-01-24T07:01:01.781Z,0.00
2024-01-24T07:02:01.770Z,0.10
2024-01-24T07:03:01.765Z,1.00
2024-01-24T07:04:01.775Z,0.10
2024-01-24T07:05:01.946Z,0.40
2024-01-24T07:06:01.686Z,0.80
2024-01-24T07:07:01.705Z,0.10
2024-01-24T07:08:01.629Z,0.10
2024-01-24T07:09:01.642Z,0.00
2024-01-24T07:10:01.668Z,0.10
2024-01-24T07:11:01.642Z,0.70
2024-01-24T07:12:01.579Z,0.10
2024-01-24T07:13:01.646Z,0.20
2024-01-24T07:14:01.605Z,0.10
2024-01-24T07:15:01.612Z,0.10
2024-01-24T07:16:01.626Z,0.10
2024-01-24T07:17:01.549Z,0.30
2024-01-24T07:18:01.581Z,0.50
2024-01-24T07:19:01.656Z,0.10
2024-01-24T07:20:01.582Z,0.10
2024-01-24T07:21:01.531Z,0.10
2024-01-24T07:22:03.947Z,0.10
2024-01-24T07:23:01.733Z,0.20
2024-01-24T07:24:02.342Z,0.10
2024-01-24T07:25:02.636Z,0.10
2024-01-24T07:26:02.813Z,0.80
2024-01-24T07:27:01.451Z,0.70
2024-01-24T07:28:02.293Z,0.90
2024-01-24T07:29:02.165Z,0.60
2024-01-24T07:30:01.428Z,0.20
2024-01-24T07:31:01.490Z,0.10
2024-01-24T07:32:01.376Z,0.10
2024-01-24T07:33:01.417Z,0.20
2024-01-24T07:34:02.996Z,0.20
2024-01-24T07:35:02.202Z,0.30
2024-01-24T07:36:01.325Z,0.10
2024-01-24T07:37:01.483Z,0.10
2024-01-24T07:38:01.737Z,0.30
2024-01-24T07:39:01.515Z,0.10
2024-01-24T07:40:01.343Z,0.00
2024-01-24T07:41:01.823Z,0.10
2024-01-24T07:42:01.287Z,0.10
2024-01-24T07:43:01.311Z,0.20
2024-01-24T07:44:01.252Z,0.70
2024-01-24T07:45:01.430Z,0.10
2024-01-24T07:46:02.361Z,0.10
2024-01-24T07:47:02.218Z,0.30
2024-01-24T07:48:02.673Z,0.10
2024-01-24T07:49:01.656Z,0.10
2024-01-24T07:50:02.134Z,0.60
2024-01-24T07:51:01.703Z,0.10
2024-01-24T07:52:02.227Z,0.10
2024-01-24T07:53:01.944Z,0.10
2024-01-24T07:54:02.414Z,0.20
2024-01-24T07:55:01.997Z,0.60
2024-01-24T07:56:10.882Z,0.50
2024-01-24T07:57:02.635Z,0.20
2024-01-24T07:58:01.812Z,1.20
2024-01-24T07:59:01.844Z,0.10
2024-01-24T08:00:01.720Z,0.50
2024-01-24T08:01:01.145Z,0.10
2024-01-24T08:02:01.119Z,0.10
2024-01-24T08:03:01.054Z,0.10
2024-01-24T08:04:01.181Z,0.10
2024-01-24T08:05:01.147Z,0.10
2024-01-24T08:06:01.027Z,0.10
2024-01-24T08:07:01.042Z,0.50
2024-01-24T08:08:01.074Z,0.20
2024-01-24T08:09:01.064Z,0.50
2024-01-24T08:10:01.117Z,0.60
2024-01-24T08:11:00.996Z,0.20
2024-01-24T08:12:00.959Z,0.10
2024-01-24T08:13:01.023Z,1.10
2024-01-24T08:14:00.933Z,0.80
2024-01-24T08:15:00.948Z,0.40
2024-01-24T08:16:00.986Z,0.10
2024-01-24T08:17:00.922Z,0.10
2024-01-24T08:18:00.898Z,0.10
2024-01-24T08:19:00.989Z,0.10
2024-01-24T08:20:00.993Z,0.10
2024-01-24T08:21:00.860Z,0.80
2024-01-24T08:22:01.016Z,0.30
2024-01-24T08:23:00.827Z,0.10
2024-01-24T08:24:00.810Z,0.30
2024-01-24T08:25:00.922Z,0.10
2024-01-24T08:26:00.820Z,0.20
2024-01-24T08:27:00.815Z,0.20
2024-01-24T08:28:00.863Z,0.10
2024-01-24T08:29:00.753Z,0.80
2024-01-24T08:30:00.778Z,0.40
2024-01-24T08:31:00.853Z,0.40
2024-01-24T08:32:00.769Z,0.20
2024-01-24T08:33:00.814Z,0.20
2024-01-24T08:34:00.811Z,0.20
2024-01-24T08:35:00.767Z,0.10
2024-01-24T08:36:00.741Z,0.10
2024-01-24T08:37:00.797Z,0.20
2024-01-24T08:38:00.684Z,0.10
2024-01-24T08:39:00.673Z,0.10
2024-01-24T08:40:00.756Z,0.40
2024-01-24T08:41:00.635Z,0.40
2024-01-24T08:42:00.613Z,1.20
2024-01-24T08:43:00.691Z,0.10
2024-01-24T08:44:00.617Z,0.30
2024-01-24T08:45:00.657Z,0.30
2024-01-24T08:46:00.679Z,0.20
2024-01-24T08:47:00.595Z,0.10
2024-01-24T08:48:00.575Z,0.20
2024-01-24T08:49:00.645Z,0.30
2024-01-24T08:50:00.770Z,0.60
2024-01-24T08:51:00.551Z,0.20
2024-01-24T08:52:00.746Z,0.30
2024-01-24T08:53:00.512Z,0.20
2024-01-24T08:54:00.505Z,0.40
2024-01-24T08:55:00.754Z,0.70
2024-01-24T08:56:00.532Z,1.40
2024-01-24T08:57:00.458Z,0.50
2024-01-24T08:58:00.490Z,0.70
2024-01-24T08:59:00.441Z,0.20
2024-01-24T09:00:00.474Z,0.20
2024-01-24T09:01:00.511Z,0.20
2024-01-24T09:02:00.608Z,0.20
2024-01-24T09:03:00.439Z,0.70
2024-01-24T09:04:00.469Z,0.30
2024-01-24T09:05:00.526Z,0.20
2024-01-24T09:06:00.460Z,0.80
2024-01-24T09:07:00.497Z,0.40
2024-01-24T09:08:00.345Z,0.20
2024-01-24T09:09:00.393Z,1.30
2024-01-24T09:10:00.392Z,0.50
2024-01-24T09:11:00.315Z,0.10
2024-01-24T09:12:00.308Z,0.20
2024-01-24T09:13:00.492Z,0.50
2024-01-24T09:14:00.281Z,0.40
2024-01-24T09:15:00.292Z,0.80
2024-01-24T09:16:00.281Z,0.20
2024-01-24T09:17:00.521Z,1.30
2024-01-24T09:18:00.330Z,0.30
2024-01-24T09:19:00.363Z,0.40
2024-01-24T09:20:00.649Z,0.50
2024-01-24T09:21:00.193Z,0.20
2024-01-24T09:22:00.301Z,0.30
2024-01-24T09:23:00.188Z,1.30
2024-01-24T09:24:00.221Z,0.40
2024-01-24T09:25:01.748Z,0.60
2024-01-24T09:26:00.161Z,1.00
2024-01-24T09:27:00.155Z,2.20
2024-01-24T09:28:00.361Z,0.70
2024-01-24T09:29:00.098Z,0.60
2024-01-24T09:30:00.165Z,1.00
2024-01-24T09:31:00.119Z,0.70
2024-01-24T09:32:00.098Z,1.10
2024-01-24T09:33:00.213Z,1.10
2024-01-24T09:34:00.277Z,1.30
2024-01-24T09:35:00.202Z,2.40
2024-01-24T09:36:00.107Z,1.60
2024-01-24T09:37:00.132Z,0.80
2024-01-24T09:38:00.033Z,2.40
2024-01-24T09:38:59.989Z,0.90
2024-01-24T09:40:00.179Z,1.70
2024-01-24T09:40:59.993Z,0.80
2024-01-24T09:41:59.970Z,0.30
2024-01-24T09:43:00.081Z,2.60
2024-01-24T09:43:59.939Z,1.50
2024-01-24T09:44:59.964Z,2.50
2024-01-24T09:45:59.953Z,1.30
2024-01-24T09:46:59.896Z,2.00
2024-01-24T09:47:59.925Z,2.30
2024-01-24T09:48:59.942Z,1.30
2024-01-24T09:49:59.903Z,2.30
2024-01-24T09:50:59.865Z,0.80
2024-01-24T09:51:59.889Z,1.40
2024-01-24T09:52:59.898Z,1.50
2024-01-24T09:53:59.838Z,0.90
2024-01-24T09:54:59.909Z,0.70
2024-01-24T09:55:59.822Z,2.90
2024-01-24T09:56:59.868Z,3.10
2024-01-24T09:57:59.821Z,1.20
2024-01-24T09:58:59.777Z,1.70
2024-01-24T09:59:59.832Z,2.80
2024-01-24T10:00:59.959Z,1.70
2024-01-24T10:01:59.829Z,1.40
2024-01-24T10:02:59.811Z,2.60
2024-01-24T10:03:59.809Z,4.30
2024-01-24T10:04:59.770Z,1.90
2024-01-24T10:05:59.755Z,1.10
2024-01-24T10:06:59.793Z,1.80
2024-01-24T10:07:59.725Z,4.00
2024-01-24T10:08:59.736Z,4.30
2024-01-24T10:10:00.606Z,3.20
2024-01-24T10:10:59.650Z,3.50
2024-01-24T10:11:59.630Z,4.60
2024-01-24T10:12:59.694Z,2.80
2024-01-24T10:13:59.696Z,1.60
2024-01-24T10:14:59.616Z,2.50
2024-01-24T10:15:59.711Z,3.80
2024-01-24T10:16:59.644Z,3.20
2024-01-24T10:17:59.739Z,2.70
2024-01-24T10:18:59.720Z,2.00
2024-01-24T10:19:59.759Z,6.80
2024-01-24T10:20:59.550Z,4.70
2024-01-24T10:21:59.692Z,2.40
2024-01-24T10:22:59.602Z,4.50
2024-01-24T10:23:59.528Z,3.90
2024-01-24T10:24:59.556Z,3.50
2024-01-24T10:25:59.526Z,5.50
2024-01-24T10:26:59.486Z,5.20
2024-01-24T10:27:59.532Z,2.70
2024-01-24T10:28:59.461Z,1.80
2024-01-24T10:29:59.462Z,6.00
2024-01-24T10:30:59.607Z,3.30
2024-01-24T10:31:59.416Z,5.10
2024-01-24T10:32:59.485Z,3.00
2024-01-24T10:33:59.577Z,4.10
2024-01-24T10:34:59.539Z,4.00
2024-01-24T10:36:02.926Z,3.80
2024-01-24T10:37:00.418Z,3.20
2024-01-24T10:37:59.385Z,3.90
2024-01-24T10:38:59.474Z,4.30
2024-01-24T10:39:59.510Z,4.70
2024-01-24T10:40:59.356Z,3.10
2024-01-24T10:41:59.368Z,4.20
2024-01-24T10:42:59.482Z,2.90
2024-01-24T10:43:59.312Z,3.50
2024-01-24T10:44:59.279Z,3.10
2024-01-24T10:45:59.338Z,3.80
2024-01-24T10:46:59.272Z,3.30
2024-01-24T10:47:59.479Z,1.30
2024-01-24T10:48:59.332Z,2.40
2024-01-24T10:49:59.255Z,2.40
2024-01-24T10:50:59.223Z,5.20
2024-01-24T10:51:59.280Z,5.60
2024-01-24T10:52:59.194Z,2.80
2024-01-24T10:53:59.424Z,3.50
2024-01-24T10:54:59.272Z,4.90
2024-01-24T10:55:59.183Z,3.80
2024-01-24T10:56:59.184Z,4.40
2024-01-24T10:57:59.296Z,4.00
2024-01-24T10:58:59.150Z,2.90
2024-01-24T10:59:59.166Z,6.40
2024-01-24T11:00:59.247Z,4.70
2024-01-24T11:01:59.129Z,5.50
2024-01-24T11:02:59.162Z,5.50
2024-01-24T11:03:59.170Z,6.00
2024-01-24T11:04:59.126Z,5.70
2024-01-24T11:05:59.088Z,6.00
2024-01-24T11:06:59.413Z,7.20
2024-01-24T11:07:59.085Z,6.20
2024-01-24T11:08:59.048Z,7.50
2024-01-24T11:09:59.113Z,9.10
2024-01-24T11:10:59.061Z,8.00
2024-01-24T11:11:58.997Z,5.20
2024-01-24T11:12:59.165Z,5.90
2024-01-24T11:13:59.004Z,6.60
2024-01-24T11:14:58.999Z,5.00
2024-01-24T11:15:59.064Z,4.80
2024-01-24T11:16:59.061Z,6.20
2024-01-24T11:17:59.001Z,4.60
2024-01-24T11:18:59.061Z,9.10
2024-01-24T11:19:59.006Z,5.30
2024-01-24T11:20:58.881Z,3.80
2024-01-24T11:21:58.950Z,4.10
2024-01-24T11:22:58.939Z,7.90
2024-01-24T11:23:58.900Z,5.40
2024-01-24T11:24:58.894Z,6.40
2024-01-24T11:25:58.847Z,9.00
2024-01-24T11:26:59.139Z,6.30
2024-01-24T11:27:58.908Z,5.40
2024-01-24T11:28:58.883Z,6.50
2024-01-24T11:29:58.812Z,5.70
2024-01-24T11:30:58.889Z,9.10
2024-01-24T11:31:58.771Z,8.30
2024-01-24T11:32:58.806Z,4.90
2024-01-24T11:33:58.818Z,7.50
2024-01-24T11:34:58.772Z,7.20
2024-01-24T11:35:58.744Z,7.30
2024-01-24T11:36:58.771Z,7.10
2024-01-24T11:38:08.573Z,8.80
2024-01-24T11:38:59.728Z,6.60
2024-01-24T11:39:58.759Z,9.10
2024-01-24T11:40:58.728Z,9.00
2024-01-24T11:41:58.692Z,7.10
2024-01-24T11:42:58.865Z,5.90
2024-01-24T11:43:58.642Z,9.40
2024-01-24T11:44:58.654Z,4.60
2024-01-24T11:45:58.711Z,6.00
2024-01-24T11:46:58.689Z,7.40
2024-01-24T11:47:58.657Z,7.50
2024-01-24T11:48:58.776Z,5.70
2024-01-24T11:49:58.667Z,6.60
2024-01-24T11:50:58.614Z,6.50
2024-01-24T11:51:58.691Z,9.70
2024-01-24T11:52:58.575Z,6.70
2024-01-24T11:53:58.562Z,6.60
2024-01-24T11:54:58.680Z,4.80
2024-01-24T11:55:58.574Z,5.30
2024-01-24T11:56:58.556Z,6.80
2024-01-24T11:57:58.565Z,5.50
2024-01-24T11:58:58.664Z,5.40
2024-01-24T11:59:58.562Z,5.70
2024-01-24T12:00:58.575Z,5.80
2024-01-24T12:01:58.519Z,7.20
2024-01-24T12:02:58.451Z,7.20
2024-01-24T12:03:58.542Z,6.90
2024-01-24T12:04:58.454Z,6.70
2024-01-24T12:05:58.427Z,9.30
2024-01-24T12:06:58.469Z,8.60
2024-01-24T12:07:58.430Z,5.20
2024-01-24T12:08:58.633Z,6.90
2024-01-24T12:09:58.461Z,6.50
2024-01-24T12:10:58.402Z,6.90
2024-01-24T12:11:58.344Z,6.80
2024-01-24T12:12:58.439Z,7.70
2024-01-24T12:13:58.386Z,10.60
2024-01-24T12:14:59.406Z,5.50
2024-01-24T12:15:58.694Z,5.50
2024-01-24T12:16:58.315Z,7.60
2024-01-24T12:17:58.381Z,8.00
2024-01-24T12:18:58.359Z,7.40
2024-01-24T12:19:58.421Z,6.20
2024-01-24T12:21:01.516Z,9.00
2024-01-24T12:21:58.300Z,6.80
2024-01-24T12:22:58.238Z,7.20
2024-01-24T12:23:58.300Z,6.00
2024-01-24T12:24:58.290Z,5.80
2024-01-24T12:25:58.246Z,5.40
2024-01-24T12:27:00.194Z,5.10
2024-01-24T12:27:58.260Z,5.50
2024-01-24T12:28:58.174Z,7.20
2024-01-24T12:29:58.198Z,8.10
2024-01-24T12:30:58.192Z,8.70
2024-01-24T12:31:58.147Z,5.40
2024-01-24T12:32:58.815Z,9.10
2024-01-24T12:33:58.192Z,7.10
2024-01-24T12:34:58.270Z,9.30
2024-01-24T12:35:58.093Z,8.60
2024-01-24T12:36:58.160Z,7.90
2024-01-24T12:37:58.124Z,5.60
2024-01-24T12:38:58.894Z,6.20
2024-01-24T12:39:58.138Z,7.30
2024-01-24T12:40:58.043Z,6.70
2024-01-24T12:41:58.021Z,9.00
2024-01-24T12:42:58.108Z,12.70
2024-01-24T12:43:58.032Z,9.10
2024-01-24T12:44:58.001Z,7.30
2024-01-24T12:45:58.070Z,7.00
2024-01-24T12:46:58.011Z,8.00
2024-01-24T12:47:58.044Z,8.70
2024-01-24T12:48:58.125Z,10.20
2024-01-24T12:49:58.068Z,8.90
2024-01-24T12:50:58.116Z,9.10
2024-01-24T12:51:57.945Z,8.00
2024-01-24T12:52:57.993Z,9.90
2024-01-24T12:53:57.912Z,10.50
2024-01-24T12:54:57.931Z,7.90
2024-01-24T12:55:57.971Z,7.20
2024-01-24T12:56:57.899Z,9.30
2024-01-24T12:57:57.930Z,8.80
2024-01-24T12:58:57.884Z,8.00
2024-01-24T12:59:57.833Z,7.00
2024-01-24T13:00:58.022Z,10.10
2024-01-24T13:01:57.878Z,10.70
2024-01-24T13:02:57.792Z,9.50
2024-01-24T13:03:57.844Z,10.80
2024-01-24T13:04:57.853Z,9.20
2024-01-24T13:05:57.973Z,9.90
2024-01-24T13:06:57.935Z,7.20
2024-01-24T13:07:57.830Z,10.10
2024-01-24T13:08:57.797Z,9.50
2024-01-24T13:09:59.882Z,7.20
2024-01-24T13:10:58.793Z,8.30
2024-01-24T13:11:57.770Z,8.00
2024-01-24T13:12:57.726Z,9.60
2024-01-24T13:13:57.702Z,10.70
2024-01-24T13:14:57.719Z,11.30
2024-01-24T13:15:57.730Z,7.00
2024-01-24T13:16:57.761Z,7.80
2024-01-24T13:17:57.757Z,8.40